Time;durP1;ratioP1;P1;durP2;ratioP2;P2;SDS_P1;SDS_P2;PMS_P1;PMS_P2;Temp;Humidity;BMP_temperature;BMP_pressure;BME280_temperature;BME280_humidity;BME280_pressure;Samples;Min_cycle;Max_cycle;Signal;HPM_P1;HPM_P2
2024/01/16 00:01:43;;;;;;;0.30;0.30;;;2.40;99.90;;;;;;5001419;28;20745;-83
2024/01/16 00:04:09;;;;;;;0.30;0.30;;;2.60;99.90;;;;;;5004139;28;20199;-83
2024/01/16 00:06:41;;;;;;;0.30;0.30;;;2.60;99.90;;;;;;4986534;28;20273;-82
2024/01/16 00:09:09;;;;;;;0.30;0.30;;;2.60;99.90;;;;;;4985757;28;20318;-84
2024/01/16 00:11:43;;;;;;;0.30;0.30;;;2.90;99.90;;;;;;5002791;28;20218;-83
2024/01/16 00:14:09;;;;;;;0.40;0.40;;;2.90;99.90;;;;;;5034816;28;20460;-83
2024/01/16 00:16:46;;;;;;;0.30;0.30;;;3.00;99.90;;;;;;5035309;28;20591;-84
2024/01/16 00:19:12;;;;;;;0.30;0.30;;;3.00;99.90;;;;;;5003424;28;20226;-82
2024/01/16 00:21:47;;;;;;;0.40;0.40;;;3.10;99.90;;;;;;5003778;28;20555;-83
2024/01/16 00:24:14;;;;;;;0.50;0.50;;;3.00;99.90;;;;;;5034884;28;20222;-83
2024/01/16 00:26:40;;;;;;;0.20;0.20;;;3.00;99.90;;;;;;5018259;28;20215;-83
2024/01/16 00:29:06;;;;;;;0.30;0.30;;;3.00;99.90;;;;;;5018545;28;20225;-83
2024/01/16 00:31:32;;;;;;;0.30;0.30;;;3.10;99.90;;;;;;5002766;28;20671;-82
2024/01/16 00:33:58;;;;;;;0.20;0.20;;;3.10;99.90;;;;;;5019217;28;20175;-83
2024/01/16 00:36:23;;;;;;;0.30;0.30;;;2.90;99.90;;;;;;5018144;28;20222;-85
2024/01/16 00:38:49;;;;;;;0.30;0.30;;;2.80;99.90;;;;;;4985744;28;20239;-83
2024/01/16 00:41:15;;;;;;;0.20;0.20;;;2.60;99.90;;;;;;4988633;28;20282;-84
2024/01/16 00:43:44;;;;;;;0.40;0.40;;;2.50;99.90;;;;;;5004683;28;20307;-83
2024/01/16 00:46:10;;;;;;;0.30;0.30;;;2.50;99.90;;;;;;4988979;28;20303;-83
2024/01/16 00:48:36;;;;;;;0.40;0.40;;;2.60;99.90;;;;;;5004782;28;20362;-82
2024/01/16 00:51:02;;;;;;;0.30;0.30;;;2.60;99.90;;;;;;4990899;28;20575;-84
2024/01/16 00:53:27;;;;;;;0.30;0.30;;;2.60;99.90;;;;;;5004458;28;20559;-83
2024/01/16 00:55:56;;;;;;;0.30;0.30;;;2.60;99.90;;;;;;4976673;28;20302;-83
2024/01/16 00:58:23;;;;;;;0.30;0.30;;;2.50;99.90;;;;;;5000759;28;20306;-84
2024/01/16 01:00:49;;;;;;;0.30;0.30;;;2.40;99.90;;;;;;5002111;28;20234;-83
2024/01/16 01:03:15;;;;;;;0.30;0.30;;;2.20;99.90;;;;;;4991019;28;20227;-83
2024/01/16 01:05:41;;;;;;;0.40;0.40;;;2.20;99.90;;;;;;5000836;28;20222;-83
2024/01/16 01:08:07;;;;;;;0.30;0.30;;;2.10;99.90;;;;;;5002505;28;21119;-83
2024/01/16 01:10:33;;;;;;;0.30;0.30;;;2.10;99.90;;;;;;5001154;28;20191;-83
2024/01/16 01:12:59;;;;;;;0.20;0.20;;;2.20;99.90;;;;;;5002394;28;20195;-83
2024/01/16 01:15:25;;;;;;;0.30;0.30;;;2.10;99.90;;;;;;5001224;28;20235;-82
2024/01/16 01:17:51;;;;;;;0.30;0.30;;;2.10;99.90;;;;;;5002274;28;20767;-83
2024/01/16 01:20:18;;;;;;;0.30;0.30;;;1.90;99.90;;;;;;5002128;28;20238;-82
2024/01/16 01:22:45;;;;;;;1.40;0.93;;;1.90;99.90;;;;;;5010346;28;20674;-83
2024/01/16 01:25:11;;;;;;;0.30;0.30;;;2.00;99.90;;;;;;5033893;28;20277;-83
2024/01/16 01:27:38;;;;;;;0.43;0.43;;;1.90;99.90;;;;;;5002175;28;20226;-82
2024/01/16 01:30:06;;;;;;;0.60;0.60;;;2.00;99.90;;;;;;5001329;28;20750;-82
2024/01/16 01:32:32;;;;;;;0.30;0.30;;;2.00;99.90;;;;;;5033893;28;20293;-82
2024/01/16 01:34:59;;;;;;;0.30;0.30;;;2.10;99.90;;;;;;5032770;28;20688;-85
2024/01/16 01:37:25;;;;;;;0.40;0.40;;;2.10;99.90;;;;;;4984349;28;20227;-82
2024/01/16 01:39:51;;;;;;;0.70;0.70;;;2.10;99.90;;;;;;5000749;28;20662;-84
2024/01/16 01:42:17;;;;;;;0.30;0.30;;;1.90;99.90;;;;;;5001414;28;20231;-83
2024/01/16 01:44:42;;;;;;;0.30;0.30;;;1.90;99.90;;;;;;5000108;28;20265;-84
2024/01/16 01:47:09;;;;;;;0.40;0.40;;;2.10;99.90;;;;;;4984190;28;20235;-85
2024/01/16 01:49:35;;;;;;;0.30;0.30;;;2.30;99.90;;;;;;5000418;28;20270;-83
2024/01/16 01:52:03;;;;;;;0.30;0.30;;;2.40;99.90;;;;;;5002644;28;20192;-82
2024/01/16 01:54:30;;;;;;;0.30;0.30;;;2.50;99.90;;;;;;5000364;28;20260;-84
2024/01/16 01:56:56;;;;;;;0.30;0.30;;;2.50;99.90;;;;;;5033982;28;20238;-85
2024/01/16 01:59:23;;;;;;;0.40;0.40;;;2.50;99.90;;;;;;5009509;28;20255;-83
2024/01/16 02:01:52;;;;;;;0.30;0.30;;;2.50;99.90;;;;;;5000039;28;20246;-86
2024/01/16 02:04:19;;;;;;;0.30;0.30;;;2.50;99.90;;;;;;5007704;28;20198;-82
2024/01/16 02:06:45;;;;;;;0.70;0.70;;;2.50;99.90;;;;;;5001358;28;20210;-82
2024/01/16 02:09:13;;;;;;;2.07;0.70;;;2.60;99.90;;;;;;4999716;28;20223;-82
2024/01/16 02:11:42;;;;;;;0.30;0.30;;;2.70;99.90;;;;;;5000061;28;20615;-83
2024/01/16 02:14:09;;;;;;;0.30;0.30;;;2.60;99.90;;;;;;4999957;28;20227;-83
2024/01/16 02:16:39;;;;;;;0.30;0.30;;;2.70;99.90;;;;;;5032369;28;20798;-85
2024/01/16 02:19:06;;;;;;;0.40;0.40;;;2.60;99.90;;;;;;5033614;28;20215;-86
2024/01/16 02:21:53;;;;;;;0.30;0.30;;;2.60;99.90;;;;;;5000356;28;20302;-83
2024/01/16 02:24:19;;;;;;;0.30;0.30;;;2.60;99.90;;;;;;4999849;28;20727;-84
2024/01/16 02:26:45;;;;;;;0.37;0.37;;;2.60;99.90;;;;;;5000363;28;20231;-83
2024/01/16 02:29:11;;;;;;;0.40;0.40;;;2.60;99.90;;;;;;4999842;28;20235;-82
2024/01/16 02:31:37;;;;;;;0.30;0.30;;;2.50;99.90;;;;;;4983858;28;20231;-83
2024/01/16 02:34:04;;;;;;;0.30;0.30;;;2.50;99.90;;;;;;5008099;28;20198;-83
2024/01/16 02:36:30;;;;;;;0.30;0.30;;;2.50;99.90;;;;;;5000418;28;20223;-83
2024/01/16 02:38:56;;;;;;;0.27;0.27;;;2.40;99.90;;;;;;4983490;28;20231;-82
2024/01/16 02:41:21;;;;;;;0.30;0.30;;;2.40;99.90;;;;;;4983224;28;20230;-84
2024/01/16 02:43:47;;;;;;;3.70;1.23;;;2.40;99.90;;;;;;5000834;28;20224;-84
2024/01/16 02:46:14;;;;;;;0.30;0.30;;;2.30;99.90;;;;;;5000302;28;20248;-82
2024/01/16 02:48:42;;;;;;;0.30;0.30;;;2.40;99.90;;;;;;5032557;28;20234;-83
2024/01/16 02:51:08;;;;;;;0.37;0.37;;;2.30;99.90;;;;;;4999699;28;20223;-83
2024/01/16 02:53:34;;;;;;;0.20;0.20;;;2.30;99.90;;;;;;5000501;28;20227;-82
2024/01/16 02:56:00;;;;;;;0.20;0.20;;;2.30;99.90;;;;;;4999656;28;20220;-82
2024/01/16 02:58:27;;;;;;;0.53;0.53;;;2.30;99.90;;;;;;4998663;28;20297;-83
2024/01/16 03:00:52;;;;;;;1.03;1.03;;;2.40;99.90;;;;;;4999484;28;20238;-85
2024/01/16 03:03:18;;;;;;;0.30;0.30;;;2.40;99.90;;;;;;4995725;28;20261;-82
2024/01/16 03:05:44;;;;;;;0.30;0.30;;;2.40;99.90;;;;;;4985555;28;20589;-83
2024/01/16 03:08:10;;;;;;;0.30;0.30;;;2.50;99.90;;;;;;4999924;28;20269;-84
2024/01/16 03:10:36;;;;;;;0.30;0.30;;;2.50;99.90;;;;;;4999767;28;20226;-82
2024/01/16 03:13:02;;;;;;;0.33;0.33;;;2.50;99.90;;;;;;4999971;28;20187;-83
2024/01/16 03:15:30;;;;;;;0.30;0.30;;;2.50;99.90;;;;;;4998735;28;20702;-84
2024/01/16 03:18:00;;;;;;;0.93;0.93;;;2.50;99.90;;;;;;4984568;28;20285;-83
2024/01/16 03:20:29;;;;;;;1.30;1.30;;;2.50;99.90;;;;;;5012223;28;20241;-83
2024/01/16 03:22:55;;;;;;;0.63;0.47;;;2.60;99.90;;;;;;5004516;28;20293;-83
2024/01/16 03:25:21;;;;;;;0.50;0.50;;;2.60;99.90;;;;;;5019422;28;20195;-83
2024/01/16 03:27:47;;;;;;;0.30;0.30;;;2.70;99.90;;;;;;5004280;28;20639;-86
2024/01/16 03:30:13;;;;;;;0.30;0.30;;;2.70;99.90;;;;;;5003546;28;20227;-84
2024/01/16 03:32:39;;;;;;;0.30;0.30;;;2.70;99.90;;;;;;4986862;28;20609;-83
2024/01/16 03:35:06;;;;;;;0.30;0.30;;;2.70;99.90;;;;;;4986140;28;20288;-84
2024/01/16 03:37:32;;;;;;;1.13;1.03;;;2.80;99.90;;;;;;5002559;28;20265;-83
2024/01/16 03:39:58;;;;;;;0.97;0.97;;;2.70;99.90;;;;;;5003093;28;20203;-84
2024/01/16 03:42:24;;;;;;;0.30;0.30;;;2.70;99.90;;;;;;5010654;28;20227;-84
2024/01/16 03:44:50;;;;;;;0.40;0.40;;;2.70;99.90;;;;;;5009252;28;20235;-84
2024/01/16 03:47:16;;;;;;;0.30;0.30;;;2.70;99.90;;;;;;4998455;28;20676;-86
2024/01/16 03:49:42;;;;;;;0.30;0.30;;;2.70;99.90;;;;;;5014756;28;20211;-86
2024/01/16 03:52:08;;;;;;;0.20;0.20;;;2.70;99.90;;;;;;4998914;28;20206;-84
2024/01/16 03:54:33;;;;;;;0.87;0.50;;;2.70;99.90;;;;;;5014880;28;20211;-83
2024/01/16 03:56:59;;;;;;;0.30;0.30;;;2.70;99.90;;;;;;5014552;28;20219;-84
2024/01/16 03:59:25;;;;;;;0.30;0.30;;;2.60;99.90;;;;;;5014536;28;20231;-85
2024/01/16 04:01:51;;;;;;;0.33;0.33;;;2.60;99.90;;;;;;5014115;28;20314;-86
2024/01/16 04:04:17;;;;;;;0.57;0.57;;;2.50;99.90;;;;;;5047617;28;20191;-85
2024/01/16 04:06:43;;;;;;;0.63;0.63;;;2.60;99.90;;;;;;4998806;28;20602;-85
2024/01/16 04:09:09;;;;;;;0.70;0.70;;;2.50;99.90;;;;;;4998038;28;20310;-84
2024/01/16 04:11:35;;;;;;;0.90;0.90;;;2.50;99.90;;;;;;4998046;28;20678;-85
2024/01/16 04:14:01;;;;;;;0.50;0.50;;;2.50;99.90;;;;;;4998638;28;20212;-85
2024/01/16 04:16:28;;;;;;;0.30;0.30;;;2.50;99.90;;;;;;5014107;28;20194;-86
2024/01/16 04:18:53;;;;;;;0.30;0.30;;;2.50;99.90;;;;;;5014971;28;20218;-85
2024/01/16 04:21:19;;;;;;;0.30;0.30;;;2.60;99.90;;;;;;4997704;28;20298;-86
2024/01/16 04:23:45;;;;;;;0.30;0.30;;;2.60;99.90;;;;;;4998321;28;20222;-85
2024/01/16 04:26:11;;;;;;;0.30;0.30;;;2.70;99.90;;;;;;5014144;28;20214;-84
2024/01/16 04:28:37;;;;;;;0.70;0.70;;;2.70;99.90;;;;;;5014959;28;20551;-85
2024/01/16 04:31:04;;;;;;;0.40;0.40;;;2.80;99.90;;;;;;5013860;28;20624;-85
2024/01/16 04:33:29;;;;;;;0.97;0.97;;;2.80;99.90;;;;;;5015524;28;20231;-84
2024/01/16 04:35:56;;;;;;;0.30;0.30;;;2.90;99.90;;;;;;5013833;28;20302;-86
2024/01/16 04:38:21;;;;;;;0.77;0.77;;;3.00;99.90;;;;;;4997788;28;20223;-86
2024/01/16 04:40:47;;;;;;;0.30;0.30;;;2.90;99.90;;;;;;5014846;28;20222;-85
2024/01/16 04:43:13;;;;;;;0.40;0.40;;;2.90;99.90;;;;;;5014565;28;20183;-84
2024/01/16 04:45:39;;;;;;;2.30;0.90;;;2.90;99.90;;;;;;5015313;28;20563;-85
2024/01/16 04:48:08;;;;;;;0.53;0.53;;;2.90;99.90;;;;;;5013881;28;20219;-85
2024/01/16 04:50:36;;;;;;;0.30;0.30;;;2.90;99.90;;;;;;4998017;28;20212;-85
2024/01/16 04:53:02;;;;;;;0.20;0.20;;;2.80;99.90;;;;;;5013825;28;20222;-85
2024/01/16 04:55:29;;;;;;;0.33;0.33;;;2.80;99.90;;;;;;4997407;28;20516;-84
2024/01/16 04:57:56;;;;;;;0.40;0.40;;;2.80;99.90;;;;;;5014737;28;20284;-84
2024/01/16 05:00:22;;;;;;;0.37;0.37;;;2.80;99.90;;;;;;5013503;28;20298;-84
2024/01/16 05:02:48;;;;;;;0.30;0.30;;;2.70;99.90;;;;;;5013680;28;20225;-84
2024/01/16 05:05:14;;;;;;;0.40;0.40;;;2.60;99.90;;;;;;5013681;28;20667;-84
2024/01/16 05:07:40;;;;;;;0.53;0.53;;;2.60;99.90;;;;;;5013495;28;20215;-83
2024/01/16 05:10:09;;;;;;;0.40;0.40;;;2.60;99.90;;;;;;4997579;28;20183;-84
2024/01/16 05:12:35;;;;;;;0.30;0.30;;;2.60;99.90;;;;;;4997339;28;20211;-84
2024/01/16 05:15:00;;;;;;;0.20;0.20;;;2.60;99.90;;;;;;5013530;28;20302;-84
2024/01/16 05:17:26;;;;;;;0.37;0.37;;;2.60;99.90;;;;;;4997030;28;20235;-84
2024/01/16 05:19:52;;;;;;;0.40;0.40;;;2.70;99.90;;;;;;5012492;28;20219;-84
2024/01/16 05:22:17;;;;;;;0.40;0.40;;;2.60;99.90;;;;;;4996376;28;20211;-84
2024/01/16 05:24:43;;;;;;;0.33;0.33;;;2.60;99.90;;;;;;4997332;28;20280;-84
2024/01/16 05:27:09;;;;;;;0.30;0.30;;;2.60;99.90;;;;;;4997114;28;20231;-84
2024/01/16 05:29:38;;;;;;;1.43;0.80;;;2.60;99.90;;;;;;4996919;28;20294;-85
2024/01/16 05:32:04;;;;;;;0.30;0.30;;;2.70;99.90;;;;;;5013029;28;20286;-84
2024/01/16 05:34:30;;;;;;;14.73;0.70;;;2.70;99.90;;;;;;5012855;28;20499;-85
2024/01/16 05:36:55;;;;;;;59.03;1.73;;;2.80;99.90;;;;;;4996885;28;20183;-85
2024/01/16 05:39:21;;;;;;;0.30;0.30;;;2.80;99.90;;;;;;5013151;28;20284;-84
2024/01/16 05:41:47;;;;;;;0.30;0.30;;;2.80;99.90;;;;;;5014095;28;20627;-83
2024/01/16 05:44:13;;;;;;;4.03;0.87;;;2.80;99.90;;;;;;5012746;28;20583;-83
2024/01/16 05:46:39;;;;;;;1.70;1.60;;;2.80;99.90;;;;;;5012640;28;20593;-86
2024/01/16 05:49:04;;;;;;;3.10;0.97;;;2.80;99.90;;;;;;5013394;28;20206;-84
2024/01/16 05:51:30;;;;;;;0.23;0.23;;;2.90;99.90;;;;;;4996499;28;20207;-85
2024/01/16 05:53:56;;;;;;;3.10;0.60;;;2.90;99.90;;;;;;5012842;28;20227;-85
2024/01/16 05:56:22;;;;;;;0.30;0.30;;;3.00;99.90;;;;;;5012502;28;20729;-85
2024/01/16 05:58:47;;;;;;;0.50;0.50;;;2.90;99.90;;;;;;5012980;28;20576;-85
2024/01/16 06:01:13;;;;;;;0.50;0.50;;;3.00;99.90;;;;;;4999575;28;20224;-83
2024/01/16 06:03:40;;;;;;;0.40;0.40;;;3.00;99.90;;;;;;5014356;28;20219;-86
2024/01/16 06:06:07;;;;;;;5.30;0.90;;;3.00;99.90;;;;;;5013445;28;20207;-84
2024/01/16 06:08:33;;;;;;;0.53;0.50;;;3.00;99.90;;;;;;5012833;28;20310;-84
2024/01/16 06:10:59;;;;;;;0.30;0.30;;;3.00;99.90;;;;;;4996364;28;20215;-84
2024/01/16 06:13:25;;;;;;;0.60;0.60;;;3.10;99.90;;;;;;5013493;28;20194;-84
2024/01/16 06:15:51;;;;;;;0.30;0.30;;;3.00;99.90;;;;;;5014723;28;20180;-85
2024/01/16 06:18:16;;;;;;;0.47;0.47;;;3.00;99.90;;;;;;5015104;28;20225;-85
2024/01/16 06:20:42;;;;;;;1.10;0.43;;;2.90;99.90;;;;;;4998951;28;20792;-85
2024/01/16 06:23:08;;;;;;;0.30;0.30;;;2.90;99.90;;;;;;5012764;28;20222;-84
2024/01/16 06:25:34;;;;;;;0.83;0.83;;;2.90;99.90;;;;;;5015720;28;20685;-85
2024/01/16 06:27:59;;;;;;;0.20;0.20;;;2.90;99.90;;;;;;5025168;28;20190;-84
2024/01/16 06:30:25;;;;;;;0.30;0.30;;;2.90;99.90;;;;;;5024847;28;20219;-84
2024/01/16 06:32:51;;;;;;;0.27;0.27;;;2.80;99.90;;;;;;5019304;28;20698;-83
2024/01/16 06:35:17;;;;;;;0.57;0.57;;;2.80;99.90;;;;;;5018084;28;20663;-84
2024/01/16 06:37:43;;;;;;;1.27;1.17;;;2.80;99.90;;;;;;5019172;28;20239;-86
2024/01/16 06:40:10;;;;;;;0.80;0.80;;;2.80;99.90;;;;;;5024878;28;20179;-85
2024/01/16 06:42:36;;;;;;;0.30;0.30;;;2.90;99.90;;;;;;5013793;28;20281;-85
2024/01/16 06:45:02;;;;;;;0.60;0.60;;;2.80;99.90;;;;;;5018565;28;20215;-84
2024/01/16 06:47:28;;;;;;;1.10;1.10;;;2.80;99.90;;;;;;5000583;28;20223;-83
2024/01/16 06:49:54;;;;;;;0.30;0.30;;;2.80;99.90;;;;;;4996877;28;20238;-84
2024/01/16 06:52:20;;;;;;;0.30;0.30;;;2.80;99.90;;;;;;4999249;28;20203;-85
2024/01/16 06:54:45;;;;;;;0.20;0.20;;;2.80;99.90;;;;;;5002408;28;20211;-85
2024/01/16 06:57:11;;;;;;;0.30;0.30;;;2.80;99.90;;;;;;5002968;28;20211;-85
2024/01/16 06:59:37;;;;;;;0.30;0.30;;;2.80;99.90;;;;;;5002343;28;20687;-85
2024/01/16 07:02:03;;;;;;;0.30;0.30;;;2.80;99.90;;;;;;5001985;28;20237;-85
2024/01/16 07:04:32;;;;;;;0.33;0.33;;;2.80;99.90;;;;;;5020200;28;20631;-85
2024/01/16 07:06:59;;;;;;;0.20;0.20;;;2.80;99.90;;;;;;5004395;28;20175;-85
2024/01/16 07:09:27;;;;;;;0.30;0.30;;;2.90;99.90;;;;;;5001829;28;20219;-85
2024/01/16 07:11:53;;;;;;;0.30;0.30;;;2.80;99.90;;;;;;5017588;28;20306;-85
2024/01/16 07:14:19;;;;;;;0.30;0.30;;;2.80;99.90;;;;;;5017847;28;20222;-85
2024/01/16 07:16:45;;;;;;;0.47;0.47;;;2.80;99.90;;;;;;5000216;28;20314;-85
2024/01/16 07:19:14;;;;;;;0.30;0.30;;;2.70;99.90;;;;;;5017606;28;20288;-85
2024/01/16 07:21:40;;;;;;;0.30;0.30;;;2.70;99.90;;;;;;5019216;28;20636;-85
2024/01/16 07:24:06;;;;;;;0.20;0.20;;;2.70;99.90;;;;;;5018639;28;20230;-84
2024/01/16 07:26:31;;;;;;;0.30;0.30;;;2.80;99.90;;;;;;5019393;28;20282;-86
2024/01/16 07:28:57;;;;;;;0.20;0.20;;;2.70;99.90;;;;;;5004007;28;20230;-84
2024/01/16 07:31:23;;;;;;;0.37;0.37;;;2.70;99.90;;;;;;5016293;28;20187;-84
2024/01/16 07:33:49;;;;;;;0.37;0.37;;;2.70;99.90;;;;;;5016655;28;20274;-86
2024/01/16 07:36:15;;;;;;;0.30;0.30;;;2.80;99.90;;;;;;5015781;28;20239;-83
2024/01/16 07:38:41;;;;;;;0.30;0.30;;;2.70;99.90;;;;;;5015737;28;20235;-86
2024/01/16 07:41:07;;;;;;;0.40;0.40;;;2.50;99.90;;;;;;4999146;28;20647;-87
2024/01/16 07:43:33;;;;;;;0.30;0.30;;;2.40;99.90;;;;;;4998918;28;20220;-85
2024/01/16 07:45:59;;;;;;;0.30;0.30;;;2.50;99.90;;;;;;5016449;28;20289;-85
2024/01/16 07:48:27;;;;;;;0.63;0.63;;;2.40;99.90;;;;;;5015182;28;20235;-84
2024/01/16 07:50:53;;;;;;;0.40;0.40;;;2.40;99.90;;;;;;4998952;28;20211;-84
2024/01/16 07:53:19;;;;;;;0.40;0.40;;;2.40;99.90;;;;;;4998774;28;20290;-87
2024/01/16 07:55:44;;;;;;;1.30;1.13;;;2.40;99.90;;;;;;4998707;28;20219;-86
2024/01/16 07:58:12;;;;;;;0.70;0.70;;;2.40;99.90;;;;;;5016756;28;20234;-87
2024/01/16 08:00:37;;;;;;;0.30;0.30;;;2.50;99.90;;;;;;5014757;28;20317;-85
2024/01/16 08:03:04;;;;;;;2.30;0.70;;;2.50;99.90;;;;;;5015049;28;20312;-85
2024/01/16 08:05:32;;;;;;;0.33;0.33;;;2.30;99.90;;;;;;5014915;28;20226;-87
2024/01/16 08:07:58;;;;;;;0.30;0.30;;;2.30;99.90;;;;;;4998892;28;20227;-86
2024/01/16 08:10:24;;;;;;;0.83;0.50;;;2.40;99.90;;;;;;4998426;28;20180;-86
2024/01/16 08:12:50;;;;;;;1.20;1.17;;;2.40;99.90;;;;;;5015221;28;20187;-84
2024/01/16 08:15:16;;;;;;;0.93;0.93;;;2.50;99.90;;;;;;4998668;28;20550;-86
2024/01/16 08:17:42;;;;;;;0.40;0.40;;;2.50;99.90;;;;;;4998344;28;20699;-85
2024/01/16 08:20:11;;;;;;;0.50;0.50;;;2.60;99.90;;;;;;5014003;28;20706;-87
2024/01/16 08:22:37;;;;;;;0.33;0.33;;;2.50;99.90;;;;;;4998525;28;20227;-83
2024/01/16 08:25:05;;;;;;;0.57;0.57;;;2.50;99.90;;;;;;4998475;28;20198;-85
2024/01/16 08:27:31;;;;;;;0.33;0.33;;;2.60;99.90;;;;;;5014234;28;20353;-84
2024/01/16 08:29:58;;;;;;;0.30;0.30;;;2.60;99.90;;;;;;4998145;28;20215;-84
2024/01/16 08:32:24;;;;;;;0.37;0.37;;;2.60;99.90;;;;;;5014272;28;20311;-85
2024/01/16 08:34:50;;;;;;;1.67;1.60;;;2.60;99.90;;;;;;5014367;28;20231;-84
2024/01/16 08:37:16;;;;;;;0.30;0.30;;;2.70;99.90;;;;;;4998791;28;20188;-84
2024/01/16 08:39:41;;;;;;;0.60;0.37;;;2.70;99.90;;;;;;4998813;28;20208;-87
2024/01/16 08:42:11;;;;;;;2.53;2.43;;;2.70;99.90;;;;;;4997586;28;20242;-84
2024/01/16 08:44:39;;;;;;;1.37;1.30;;;2.80;99.90;;;;;;4998661;28;20224;-90
2024/01/16 08:47:06;;;;;;;0.43;0.43;;;2.80;99.90;;;;;;5014537;28;20235;-90
2024/01/16 08:49:33;;;;;;;0.57;0.57;;;2.90;99.90;;;;;;5015110;28;20283;-89
2024/01/16 08:52:03;;;;;;;0.30;0.30;;;3.00;99.90;;;;;;5015431;28;20214;-89
2024/01/16 08:54:28;;;;;;;0.30;0.30;;;3.00;99.90;;;;;;5014717;28;20215;-89
2024/01/16 08:56:58;;;;;;;0.30;0.30;;;3.20;99.90;;;;;;5000804;28;20686;-89
2024/01/16 08:59:24;;;;;;;0.40;0.40;;;3.30;99.90;;;;;;5024571;28;20231;-89
2024/01/16 09:01:50;;;;;;;0.93;0.93;;;3.50;99.90;;;;;;5021751;28;20314;-92
2024/01/16 09:04:18;;;;;;;0.30;0.30;;;3.40;99.90;;;;;;5014830;28;20222;-91
2024/01/16 09:06:44;;;;;;;0.70;0.70;;;3.10;99.90;;;;;;4997496;28;20209;-91
2024/01/16 09:09:10;;;;;;;0.23;0.23;;;3.20;99.90;;;;;;5013721;28;20310;-92
2024/01/16 09:11:36;;;;;;;0.30;0.30;;;3.10;99.90;;;;;;4997742;28;20243;-87
2024/01/16 09:14:02;;;;;;;0.40;0.40;;;3.00;99.90;;;;;;4997442;28;20705;-90
2024/01/16 09:16:28;;;;;;;0.30;0.30;;;2.90;99.90;;;;;;4997132;28;20180;-90
2024/01/16 09:18:54;;;;;;;0.30;0.30;;;2.80;99.90;;;;;;5014412;28;20211;-89
2024/01/16 09:21:23;;;;;;;0.37;0.37;;;2.70;99.90;;;;;;4997490;28;20212;-89
2024/01/16 09:23:49;;;;;;;0.60;0.60;;;2.60;99.90;;;;;;4998040;28;20211;-92
2024/01/16 09:26:15;;;;;;;0.30;0.30;;;2.60;99.90;;;;;;5013668;28;20219;-90
2024/01/16 09:28:40;;;;;;;0.50;0.50;;;2.60;99.90;;;;;;4990236;28;20241;-91
2024/01/16 09:31:07;;;;;;;0.30;0.30;;;2.40;99.90;;;;;;5014227;28;20263;-89
2024/01/16 09:33:34;;;;;;;0.30;0.30;;;2.40;99.90;;;;;;5013985;28;20274;-90
2024/01/16 09:36:02;;;;;;;0.80;0.80;;;2.40;99.90;;;;;;5013372;28;20211;-89
2024/01/16 09:38:30;;;;;;;0.50;0.50;;;2.40;99.90;;;;;;4997056;28;20282;-91
2024/01/16 09:40:58;;;;;;;0.30;0.30;;;2.50;99.90;;;;;;5013378;28;20740;-91
2024/01/16 09:43:28;;;;;;;0.30;0.30;;;2.60;99.90;;;;;;4996948;28;20532;-90
2024/01/16 09:45:55;;;;;;;0.40;0.40;;;2.80;99.90;;;;;;5013982;28;20187;-88
2024/01/16 09:48:21;;;;;;;0.30;0.30;;;2.90;99.90;;;;;;5013689;28;20233;-89
2024/01/16 09:50:50;;;;;;;1.80;1.03;;;2.80;99.90;;;;;;4996644;28;20215;-88
2024/01/16 09:53:16;;;;;;;1.23;1.13;;;2.70;99.90;;;;;;4997488;28;20219;-89
2024/01/16 09:55:42;;;;;;;0.40;0.40;;;2.80;99.90;;;;;;5013077;28;20218;-90
2024/01/16 09:58:14;;;;;;;0.40;0.40;;;2.90;99.90;;;;;;5013740;28;20219;-89
2024/01/16 10:00:43;;;;;;;0.30;0.30;;;3.10;99.90;;;;;;5012685;28;20211;-91
2024/01/16 10:03:14;;;;;;;0.57;0.57;;;2.90;99.90;;;;;;5013575;28;20215;-86
2024/01/16 10:05:46;;;;;;;0.20;0.20;;;3.10;99.90;;;;;;5014110;28;20806;-89
2024/01/16 10:08:12;;;;;;;0.47;0.47;;;3.00;99.90;;;;;;4996794;28;20289;-86
2024/01/16 10:10:39;;;;;;;0.40;0.40;;;2.90;99.90;;;;;;4996414;28;20596;-85
2024/01/16 10:13:06;;;;;;;0.57;0.50;;;2.70;99.90;;;;;;4997255;28;20574;-87
2024/01/16 10:15:32;;;;;;;0.67;0.67;;;2.70;99.90;;;;;;5012377;28;20230;-85
2024/01/16 10:17:59;;;;;;;0.60;0.60;;;2.70;99.90;;;;;;5011985;28;20695;-85
2024/01/16 10:20:37;;;;;;;0.67;0.67;;;2.80;99.90;;;;;;5012365;28;20214;-86
2024/01/16 10:23:03;;;;;;;0.50;0.50;;;2.60;99.90;;;;;;4995920;28;20685;-85
2024/01/16 10:25:29;;;;;;;0.73;0.50;;;2.60;99.90;;;;;;5012202;28;20716;-86
2024/01/16 10:28:20;;;;;;;0.33;0.33;;;2.70;99.90;;;;;;5012492;28;20191;-85
2024/01/16 10:30:46;;;;;;;0.53;0.53;;;2.40;99.90;;;;;;5012516;28;20223;-86
2024/01/16 10:33:20;;;;;;;1.40;1.30;;;2.40;99.90;;;;;;4996274;28;20215;-85
2024/01/16 10:35:48;;;;;;;0.37;0.37;;;2.60;99.90;;;;;;4997313;28;20222;-85
2024/01/16 10:38:22;;;;;;;0.50;0.50;;;2.50;99.90;;;;;;5011951;28;20677;-86
2024/01/16 10:40:50;;;;;;;0.70;0.70;;;2.70;99.90;;;;;;5011985;28;20223;-86
2024/01/16 10:43:17;;;;;;;476.40;180.83;;;2.70;99.90;;;;;;4996322;28;20179;-84
2024/01/16 10:45:43;;;;;;;25.13;6.70;;;3.00;99.90;;;;;;5012618;28;20175;-86
2024/01/16 10:48:09;;;;;;;42.20;2.20;;;3.10;99.90;;;;;;4996249;28;20353;-87
2024/01/16 10:50:37;;;;;;;0.90;0.90;;;3.10;99.90;;;;;;4996219;28;20348;-89
2024/01/16 10:53:07;;;;;;;0.87;0.77;;;3.40;99.90;;;;;;5013145;28;20219;-88
2024/01/16 10:56:02;;;;;;;0.70;0.70;;;3.30;99.90;;;;;;5012793;28;20184;-87
2024/01/16 10:58:31;;;;;;;0.20;0.20;;;3.30;99.90;;;;;;5012503;28;20219;-90
2024/01/16 11:01:05;;;;;;;0.80;0.80;;;3.00;99.90;;;;;;5012285;28;20223;-87
2024/01/16 11:03:46;;;;;;;1.20;0.50;;;2.80;99.90;;;;;;5045619;28;20230;-89
2024/01/16 11:06:16;;;;;;;0.60;0.60;;;2.60;99.90;;;;;;5012895;28;20235;-89
2024/01/16 11:08:48;;;;;;;0.30;0.30;;;2.60;99.90;;;;;;5013553;28;20290;-86
2024/01/16 11:11:15;;;;;;;6.53;0.83;;;2.80;99.90;;;;;;5012231;28;20309;-88
2024/01/16 11:13:44;;;;;;;0.30;0.30;;;2.80;99.90;;;;;;5024767;28;20262;-87
2024/01/16 11:16:16;;;;;;;0.30;0.30;;;2.80;99.90;;;;;;5001151;28;20186;-87
2024/01/16 11:18:42;;;;;;;0.33;0.33;;;3.00;99.90;;;;;;4995509;28;20235;-86
2024/01/16 11:21:10;;;;;;;0.30;0.30;;;2.90;99.90;;;;;;5011965;28;20215;-87
2024/01/16 11:23:37;;;;;;;0.30;0.30;;;3.10;99.90;;;;;;5011731;28;20219;-86
2024/01/16 11:26:27;;;;;;;0.30;0.30;;;3.20;99.90;;;;;;4995229;28;20273;-85
2024/01/16 11:28:56;;;;;;;0.60;0.60;;;3.10;99.90;;;;;;5010976;28;20699;-85
2024/01/16 11:31:35;;;;;;;0.40;0.40;;;3.20;99.90;;;;;;5012508;28;20179;-85
2024/01/16 11:34:04;;;;;;;2.37;2.27;;;3.20;99.90;;;;;;5011444;28;20218;-85
2024/01/16 11:36:55;;;;;;;0.40;0.40;;;3.30;99.90;;;;;;5011349;28;20242;-85
2024/01/16 11:39:25;;;;;;;0.30;0.30;;;3.30;99.90;;;;;;4997289;28;20253;-87
2024/01/16 11:41:58;;;;;;;0.30;0.30;;;3.40;99.90;;;;;;4999071;28;20219;-85
2024/01/16 11:44:37;;;;;;;0.83;0.83;;;3.40;99.90;;;;;;5016382;28;20223;-86
2024/01/16 11:47:03;;;;;;;0.80;0.80;;;3.40;99.90;;;;;;4999135;28;20675;-89
2024/01/16 11:49:31;;;;;;;0.40;0.40;;;3.40;99.90;;;;;;5016558;28;20181;-85
2024/01/16 11:51:58;;;;;;;0.50;0.50;;;3.70;99.90;;;;;;5014152;28;20542;-79
2024/01/16 11:54:24;;;;;;;0.30;0.30;;;4.00;99.90;;;;;;5013441;28;20246;-79
2024/01/16 11:57:29;;;;;;;0.67;0.60;;;3.90;99.90;;;;;;4999076;28;20226;-84
2024/01/16 12:00:01;;;;;;;0.20;0.20;;;4.10;99.90;;;;;;5014537;28;20235;-85
2024/01/16 12:02:47;;;;;;;0.30;0.30;;;4.40;99.90;;;;;;5015628;28;20245;-84
2024/01/16 12:05:14;;;;;;;0.30;0.30;;;4.50;99.90;;;;;;5014557;28;20739;-87
2024/01/16 12:07:54;;;;;;;0.50;0.50;;;4.50;99.90;;;;;;4998650;28;20215;-85
2024/01/16 12:10:22;;;;;;;0.40;0.40;;;4.50;99.90;;;;;;5015410;28;20175;-85
2024/01/16 12:12:49;;;;;;;0.30;0.30;;;4.60;99.90;;;;;;5014916;28;20178;-86
2024/01/16 12:15:17;;;;;;;0.43;0.43;;;4.40;99.90;;;;;;4982079;28;20231;-84
2024/01/16 12:17:52;;;;;;;0.40;0.40;;;4.50;99.90;;;;;;4998178;28;20255;-85
2024/01/16 12:20:18;;;;;;;0.30;0.30;;;4.50;99.90;;;;;;5014529;28;20229;-86
2024/01/16 12:22:44;;;;;;;0.40;0.40;;;4.60;99.90;;;;;;4998305;28;20211;-85
2024/01/16 12:25:11;;;;;;;0.60;0.60;;;4.50;99.90;;;;;;5015607;28;20555;-84
2024/01/16 12:27:37;;;;;;;0.30;0.30;;;4.50;99.90;;;;;;5013654;28;20231;-84
2024/01/16 12:30:10;;;;;;;1.70;1.20;;;4.50;99.90;;;;;;4997297;28;20249;-84
2024/01/16 12:32:36;;;;;;;0.53;0.53;;;4.60;99.90;;;;;;5014818;28;20370;-84
2024/01/16 12:35:02;;;;;;;0.30;0.30;;;4.80;99.90;;;;;;4997476;28;20256;-82
2024/01/16 12:37:28;;;;;;;0.50;0.50;;;4.70;99.90;;;;;;4997264;28;20229;-82
2024/01/16 12:39:57;;;;;;;0.50;0.50;;;4.70;99.90;;;;;;4997874;28;20190;-83
2024/01/16 12:42:24;;;;;;;0.60;0.60;;;4.60;99.90;;;;;;5013451;28;20302;-85
2024/01/16 12:44:50;;;;;;;0.33;0.33;;;4.60;99.90;;;;;;4994377;28;20561;-83
2024/01/16 12:47:19;;;;;;;0.50;0.50;;;4.50;99.90;;;;;;5003535;28;20219;-84
2024/01/16 12:49:48;;;;;;;1.03;0.63;;;4.40;99.90;;;;;;4997924;28;20227;-83
2024/01/16 12:52:17;;;;;;;1.07;1.07;;;4.30;99.90;;;;;;5012948;28;20218;-83
2024/01/16 12:54:44;;;;;;;0.40;0.40;;;4.30;99.90;;;;;;4993344;28;20211;-82
2024/01/16 12:57:16;;;;;;;0.73;0.73;;;4.20;99.90;;;;;;4993074;28;20217;-82
2024/01/16 12:59:41;;;;;;;0.70;0.70;;;4.50;99.90;;;;;;5014091;28;20629;-83